createdAt,value
2016-09-16T00:00:06.728Z,0
2016-09-16T00:01:06.750Z,0
2016-09-16T00:02:06.771Z,0
2016-09-16T00:04:06.822Z,0
2016-09-16T00:05:06.850Z,0
2016-09-16T00:06:06.871Z,0
2016-09-16T00:07:06.904Z,0
2016-09-16T00:08:06.939Z,0
2016-09-16T00:09:06.953Z,0
2016-09-16T00:10:06.978Z,0
2016-09-16T00:11:07.003Z,0
2016-09-16T00:12:07.040Z,0
2016-09-16T00:13:07.056Z,0
2016-09-16T00:14:07.077Z,0
2016-09-16T00:15:07.101Z,0
2016-09-16T00:16:07.122Z,0
2016-09-16T00:18:07.482Z,0
2016-09-16T00:19:07.204Z,0
2016-09-16T00:20:07.227Z,0
2016-09-16T00:22:07.274Z,0
2016-09-16T00:23:07.305Z,0
2016-09-16T00:24:07.338Z,0
2016-09-16T00:25:07.356Z,0
2016-09-16T00:26:22.302Z,0
2016-09-16T00:27:07.410Z,0
2016-09-16T00:29:07.456Z,0
2016-09-16T00:30:07.479Z,0
2016-09-16T00:31:07.499Z,0
2016-09-16T00:32:07.540Z,0
2016-09-16T00:33:07.558Z,0
2016-09-16T00:34:07.588Z,0
2016-09-16T00:35:07.609Z,0
2016-09-16T00:36:07.639Z,0
2016-09-16T00:37:07.662Z,0
2016-09-16T00:38:07.683Z,0
2016-09-16T00:39:07.713Z,0
2016-09-16T00:40:07.895Z,0
2016-09-16T00:41:07.751Z,0
2016-09-16T00:43:08.109Z,0
2016-09-16T00:44:22.755Z,0
2016-09-16T00:45:07.857Z,0
2016-09-16T00:46:07.880Z,0
2016-09-16T00:47:07.904Z,0
2016-09-16T00:48:07.931Z,0
2016-09-16T00:50:08.033Z,0
2016-09-16T00:51:08.007Z,0
2016-09-16T00:53:08.068Z,0
2016-09-16T00:54:08.093Z,0
2016-09-16T00:55:08.134Z,0
2016-09-16T00:56:08.148Z,0
2016-09-16T00:57:08.187Z,0
2016-09-16T00:58:23.137Z,0
2016-09-16T00:59:08.240Z,0
2016-09-16T01:00:08.252Z,0
2016-09-16T01:01:08.274Z,0
2016-09-16T01:02:23.236Z,0
2016-09-16T01:03:23.259Z,0
2016-09-16T01:04:08.349Z,0
2016-09-16T01:05:08.364Z,0
2016-09-16T01:06:08.412Z,0
2016-09-16T01:07:08.428Z,0
2016-09-16T01:08:08.455Z,0
2016-09-16T01:09:08.467Z,0
2016-09-16T01:10:08.494Z,0
2016-09-16T01:11:08.538Z,0
2016-09-16T01:12:08.553Z,0
2016-09-16T01:13:08.581Z,0
2016-09-16T01:14:23.516Z,0
2016-09-16T01:15:23.537Z,0
2016-09-16T01:16:23.562Z,0
2016-09-16T01:17:08.702Z,0
2016-09-16T01:18:08.709Z,0
2016-09-16T01:19:08.730Z,0
2016-09-16T01:20:08.761Z,0
2016-09-16T01:21:08.787Z,0
2016-09-16T01:22:08.801Z,0
2016-09-16T01:23:08.836Z,0
2016-09-16T01:24:08.851Z,0
2016-09-16T01:25:08.881Z,0
2016-09-16T01:27:08.913Z,0
2016-09-16T01:28:08.976Z,0
2016-09-16T01:29:23.880Z,0
2016-09-16T01:30:09.004Z,0
2016-09-16T01:31:23.937Z,0
2016-09-16T01:32:09.052Z,0
2016-09-16T01:33:09.082Z,0
2016-09-16T01:34:09.095Z,0
2016-09-16T01:36:24.083Z,0
2016-09-16T01:37:09.155Z,0
2016-09-16T01:38:09.245Z,0
2016-09-16T01:39:09.232Z,0
2016-09-16T01:41:09.265Z,0
2016-09-16T01:42:09.316Z,0
2016-09-16T01:43:09.318Z,0
2016-09-16T01:45:09.392Z,0
2016-09-16T01:46:09.424Z,0
2016-09-16T01:47:09.443Z,0
2016-09-16T01:49:09.500Z,0
2016-09-16T01:50:24.535Z,0
2016-09-16T01:51:09.519Z,0
2016-09-16T01:52:09.553Z,0
2016-09-16T01:53:09.580Z,0
2016-09-16T01:54:09.602Z,0
2016-09-16T01:55:09.650Z,0
2016-09-16T01:56:09.652Z,0
2016-09-16T01:57:09.675Z,0
2016-09-16T01:58:09.708Z,0
2016-09-16T01:59:09.728Z,0
2016-09-16T02:00:09.741Z,0
2016-09-16T02:01:24.698Z,0
2016-09-16T02:02:09.815Z,0
2016-09-16T02:03:09.843Z,0
2016-09-16T02:04:09.858Z,0
2016-09-16T02:05:09.866Z,0
2016-09-16T02:06:24.816Z,0
2016-09-16T02:07:09.915Z,0
2016-09-16T02:08:09.935Z,0
2016-09-16T02:09:09.981Z,0
2016-09-16T02:10:10.006Z,0
2016-09-16T02:11:10.031Z,0
2016-09-16T02:12:10.041Z,0
2016-09-16T02:13:10.056Z,0
2016-09-16T02:14:10.121Z,0
2016-09-16T02:15:10.134Z,0
2016-09-16T02:16:10.158Z,0
2016-09-16T02:17:25.103Z,0
2016-09-16T02:18:25.108Z,0
2016-09-16T02:19:10.214Z,0
2016-09-16T02:20:25.164Z,0
2016-09-16T02:21:25.196Z,0
2016-09-16T02:22:10.295Z,0
2016-09-16T02:23:25.236Z,0
2016-09-16T02:24:10.356Z,0
2016-09-16T02:25:10.362Z,0
2016-09-16T02:26:10.396Z,0
2016-09-16T02:27:10.417Z,0
2016-09-16T02:28:10.453Z,0
2016-09-16T02:30:10.477Z,0
2016-09-16T02:32:10.549Z,0
2016-09-16T02:33:25.498Z,0
2016-09-16T02:34:10.600Z,0
2016-09-16T02:35:10.632Z,0
2016-09-16T02:36:10.627Z,0
2016-09-16T02:37:25.585Z,0
2016-09-16T02:38:10.727Z,0
2016-09-16T02:40:10.754Z,0
2016-09-16T02:41:10.759Z,0
2016-09-16T02:42:10.807Z,0
2016-09-16T02:43:10.810Z,0
2016-09-16T02:44:10.857Z,0
2016-09-16T02:45:10.882Z,0
2016-09-16T02:46:10.888Z,0
2016-09-16T02:47:10.909Z,0
2016-09-16T02:49:25.881Z,0
2016-09-16T02:50:11.013Z,0
2016-09-16T02:51:11.078Z,0
2016-09-16T02:52:11.099Z,0
2016-09-16T02:53:11.060Z,0
2016-09-16T02:54:11.072Z,0
2016-09-16T02:55:11.103Z,0
2016-09-16T02:56:11.130Z,0
2016-09-16T02:57:11.313Z,0
2016-09-16T02:58:11.194Z,0
2016-09-16T02:59:11.211Z,0
2016-09-16T03:00:11.238Z,0
2016-09-16T03:01:11.571Z,0
2016-09-16T03:02:11.280Z,0
2016-09-16T03:03:11.329Z,0
2016-09-16T03:04:26.251Z,0
2016-09-16T03:07:11.413Z,0
2016-09-16T03:08:11.445Z,0
2016-09-16T03:09:11.451Z,0
2016-09-16T03:10:11.472Z,0
2016-09-16T03:11:11.524Z,0
2016-09-16T03:12:11.518Z,0
2016-09-16T03:13:11.570Z,0
2016-09-16T03:14:11.593Z,0
2016-09-16T03:15:11.613Z,0
2016-09-16T03:16:11.642Z,0
2016-09-16T03:17:11.665Z,0
2016-09-16T03:18:11.684Z,0
2016-09-16T03:19:11.703Z,0
2016-09-16T03:20:11.734Z,0
2016-09-16T03:21:11.778Z,0
2016-09-16T03:22:11.809Z,0
2016-09-16T03:23:11.797Z,0
2016-09-16T03:24:11.826Z,0
2016-09-16T03:25:11.837Z,0
2016-09-16T03:27:11.905Z,0
2016-09-16T03:28:11.921Z,0
2016-09-16T03:29:11.948Z,0
2016-09-16T03:30:11.985Z,0
2016-09-16T03:31:11.998Z,0
2016-09-16T03:32:12.000Z,0
2016-09-16T03:33:12.027Z,0
2016-09-16T03:34:12.379Z,0
2016-09-16T03:35:12.095Z,0
2016-09-16T03:36:27.054Z,0
2016-09-16T03:37:12.139Z,0
2016-09-16T03:38:12.165Z,0
2016-09-16T03:39:27.115Z,0
2016-09-16T03:41:12.245Z,0
2016-09-16T03:42:12.277Z,0
2016-09-16T03:43:12.610Z,0
2016-09-16T03:44:12.315Z,0
2016-09-16T03:45:12.343Z,0
2016-09-16T03:46:12.371Z,0
2016-09-16T03:47:12.425Z,0
2016-09-16T03:48:12.415Z,0
2016-09-16T03:50:12.477Z,0
2016-09-16T03:51:12.487Z,0
2016-09-16T03:52:27.475Z,0
2016-09-16T03:53:12.537Z,0
2016-09-16T03:54:12.582Z,0
2016-09-16T03:55:27.813Z,0
2016-09-16T03:56:12.601Z,0
2016-09-16T03:57:12.637Z,0
2016-09-16T03:58:12.660Z,0
2016-09-16T03:59:13.006Z,0
2016-09-16T04:00:12.721Z,0
2016-09-16T04:01:12.734Z,0
2016-09-16T04:02:12.750Z,0
2016-09-16T04:03:13.068Z,0
2016-09-16T04:04:13.097Z,4
2016-09-16T04:05:12.821Z,0
2016-09-16T04:06:12.867Z,0
2016-09-16T04:08:27.825Z,0
2016-09-16T04:09:12.937Z,4
2016-09-16T04:10:13.550Z,4
2016-09-16T04:11:12.965Z,8
2016-09-16T04:12:27.932Z,4
2016-09-16T04:13:27.952Z,4
2016-09-16T04:14:27.978Z,8
2016-09-16T04:15:28.009Z,8
2016-09-16T04:16:13.104Z,12
2016-09-16T04:17:13.140Z,12
2016-09-16T04:18:13.141Z,16
2016-09-16T04:19:13.195Z,16
2016-09-16T04:20:13.486Z,24
2016-09-16T04:21:13.230Z,28
2016-09-16T04:22:13.254Z,32
2016-09-16T04:24:28.218Z,44
2016-09-16T04:25:13.330Z,48
2016-09-16T04:26:13.356Z,60
2016-09-16T04:27:13.662Z,64
2016-09-16T04:28:28.320Z,80
2016-09-16T04:29:28.359Z,88
2016-09-16T04:30:13.454Z,100
2016-09-16T04:31:13.473Z,116
2016-09-16T04:32:13.506Z,132
2016-09-16T04:33:13.536Z,144
2016-09-16T04:34:13.567Z,164
2016-09-16T04:35:13.847Z,184
2016-09-16T04:36:13.596Z,200
2016-09-16T04:37:13.637Z,224
2016-09-16T04:38:13.640Z,244
2016-09-16T04:39:28.600Z,276
2016-09-16T04:40:28.593Z,300
2016-09-16T04:41:13.731Z,320
2016-09-16T04:42:28.657Z,356
2016-09-16T04:43:13.783Z,376
2016-09-16T04:44:13.790Z,408
2016-09-16T04:45:13.821Z,440
2016-09-16T04:46:13.835Z,476
2016-09-16T04:47:13.863Z,508
2016-09-16T04:48:13.912Z,552
2016-09-16T04:49:13.928Z,596
2016-09-16T04:50:13.926Z,644
2016-09-16T04:51:13.954Z,696
2016-09-16T04:53:13.997Z,804
2016-09-16T04:54:14.020Z,868
2016-09-16T04:55:14.105Z,932
2016-09-16T04:56:14.065Z,1000
2016-09-16T04:57:14.097Z,1068
2016-09-16T04:58:14.111Z,1144
2016-09-16T04:59:29.069Z,1240
2016-09-16T05:00:14.155Z,1300
2016-09-16T05:01:14.187Z,1380
2016-09-16T05:02:14.213Z,1468
2016-09-16T05:04:14.269Z,1644
2016-09-16T05:05:14.576Z,1728
2016-09-16T05:06:14.311Z,1816
2016-09-16T05:07:14.339Z,1924
2016-09-16T05:08:29.283Z,2056
2016-09-16T05:09:14.405Z,2140
2016-09-16T05:10:14.403Z,2252
2016-09-16T05:11:29.381Z,2400
2016-09-16T05:12:14.467Z,2496
2016-09-16T05:13:29.413Z,2652
2016-09-16T05:14:14.511Z,2764
2016-09-16T05:15:29.467Z,3076
2016-09-16T05:16:14.549Z,3192
2016-09-16T05:18:14.600Z,3432
2016-09-16T05:19:14.631Z,3376
2016-09-16T05:20:14.674Z,3536
2016-09-16T05:21:14.668Z,3696
2016-09-16T05:22:14.709Z,3816
2016-09-16T05:23:14.728Z,3944
2016-09-16T05:24:14.773Z,4156
2016-09-16T05:25:14.768Z,4552
2016-09-16T05:26:15.118Z,4548
2016-09-16T05:27:29.752Z,4552
2016-09-16T05:28:14.867Z,4640
2016-09-16T05:29:14.870Z,4740
2016-09-16T05:30:14.896Z,4824
2016-09-16T05:31:14.936Z,5004
2016-09-16T05:32:15.018Z,5088
2016-09-16T05:33:14.994Z,5784
2016-09-16T05:34:29.926Z,6908
2016-09-16T05:35:15.326Z,7848
2016-09-16T05:36:15.081Z,7556
2016-09-16T05:37:15.071Z,6184
2016-09-16T05:38:15.113Z,6152
2016-09-16T05:39:15.152Z,6108
2016-09-16T05:40:15.158Z,6120
2016-09-16T05:42:15.190Z,6256
2016-09-16T05:44:30.163Z,6460
2016-09-16T05:45:15.275Z,6528
2016-09-16T05:46:15.302Z,6628
2016-09-16T05:47:30.265Z,6764
2016-09-16T05:48:30.569Z,6940
2016-09-16T05:49:30.305Z,7288
2016-09-16T05:50:31.363Z,7372
2016-09-16T05:51:15.426Z,7496
2016-09-16T05:52:15.438Z,7736
2016-09-16T05:53:15.778Z,15520
2016-09-16T05:54:15.510Z,26752
2016-09-16T05:55:15.517Z,28864
2016-09-16T05:56:15.535Z,28416
2016-09-16T05:57:15.581Z,30336
2016-09-16T05:58:15.592Z,31680
2016-09-16T05:59:30.540Z,31648
2016-09-16T06:00:15.645Z,31168
2016-09-16T06:01:15.693Z,31552
2016-09-16T06:02:15.714Z,32704
2016-09-16T06:03:15.728Z,33536
2016-09-16T06:04:15.751Z,32000
2016-09-16T06:05:16.087Z,30176
2016-09-16T06:06:15.799Z,30816
2016-09-16T06:07:16.151Z,32608
2016-09-16T06:08:15.865Z,34688
2016-09-16T06:09:15.883Z,36736
2016-09-16T06:10:15.923Z,37056
2016-09-16T06:11:15.966Z,36096
2016-09-16T06:12:15.965Z,34208
2016-09-16T06:13:30.936Z,35200
2016-09-16T06:15:30.982Z,38464
2016-09-16T06:16:16.085Z,37888
2016-09-16T06:17:16.435Z,38272
2016-09-16T06:18:16.178Z,36448
2016-09-16T06:19:16.181Z,39552
2016-09-16T06:20:16.209Z,40288
2016-09-16T06:21:16.232Z,42304
2016-09-16T06:22:16.267Z,41984
2016-09-16T06:23:16.294Z,42912
2016-09-16T06:24:16.340Z,44224
2016-09-16T06:25:16.362Z,42880
2016-09-16T06:26:16.427Z,43584
2016-09-16T06:27:16.451Z,45088
2016-09-16T06:28:31.687Z,46592
2016-09-16T06:29:16.484Z,45728
2016-09-16T06:30:16.512Z,45856
2016-09-16T06:31:31.473Z,46720
2016-09-16T06:32:16.626Z,45568
2016-09-16T06:33:31.556Z,46720
2016-09-16T06:34:16.645Z,47200
2016-09-16T06:36:16.709Z,47840
2016-09-16T06:37:16.769Z,47264
2016-09-16T06:38:17.067Z,46880
2016-09-16T06:39:16.825Z,48672
2016-09-16T06:40:16.840Z,46368
2016-09-16T06:41:16.886Z,46368
2016-09-16T06:42:16.903Z,47968
2016-09-16T06:43:16.936Z,46528
2016-09-16T06:44:17.204Z,46048
2016-09-16T06:45:17.006Z,49280
2016-09-16T06:46:31.964Z,49696
2016-09-16T06:47:17.064Z,49824
2016-09-16T06:48:32.024Z,51968
2016-09-16T06:49:17.137Z,51520
2016-09-16T06:51:17.216Z,53376
2016-09-16T06:52:17.224Z,54112
2016-09-16T06:53:17.270Z,52544
2016-09-16T06:54:32.229Z,51552
2016-09-16T06:55:17.340Z,50880
2016-09-16T06:56:17.374Z,50752
2016-09-16T06:57:17.415Z,47104
2016-09-16T06:58:17.462Z,46048
2016-09-16T06:59:32.392Z,48736
2016-09-16T07:00:17.518Z,48832
2016-09-16T07:01:17.531Z,47552
2016-09-16T07:02:32.494Z,50752
2016-09-16T07:03:17.972Z,50976
2016-09-16T07:04:17.625Z,49184
2016-09-16T07:06:17.699Z,53632
2016-09-16T07:07:17.729Z,51456
2016-09-16T07:09:17.812Z,51584
2016-09-16T07:10:17.839Z,52512
2016-09-16T07:11:17.860Z,50272
2016-09-16T07:12:17.907Z,49888
2016-09-16T07:13:17.946Z,52128
2016-09-16T07:14:32.912Z,49952
2016-09-16T07:15:18.047Z,52288
2016-09-16T07:16:18.035Z,52128
2016-09-16T07:17:18.370Z,51232
2016-09-16T07:18:33.036Z,53248
2016-09-16T07:19:18.151Z,52992
2016-09-16T07:20:18.194Z,51392
2016-09-16T07:21:33.295Z,51008
2016-09-16T07:22:18.242Z,47136
2016-09-16T07:23:18.283Z,44128
2016-09-16T07:24:33.249Z,47232
2016-09-16T07:25:18.358Z,49152
2016-09-16T07:26:18.385Z,50528
2016-09-16T07:27:18.435Z,51520
2016-09-16T07:28:18.467Z,52096
2016-09-16T07:29:18.494Z,49632
2016-09-16T07:30:18.555Z,51040
2016-09-16T07:31:18.586Z,50176
2016-09-16T07:32:18.624Z,52256
2016-09-16T07:33:18.628Z,49984
2016-09-16T07:34:33.596Z,50240
2016-09-16T07:35:33.612Z,50784
2016-09-16T07:36:18.755Z,47808
2016-09-16T07:37:18.792Z,49088
2016-09-16T07:38:19.112Z,51808
2016-09-16T07:39:18.829Z,50912
2016-09-16T07:40:33.796Z,50784
2016-09-16T07:41:18.904Z,50816
2016-09-16T07:42:18.927Z,48512
2016-09-16T07:43:18.972Z,44192
2016-09-16T07:44:18.998Z,46400
2016-09-16T07:45:19.052Z,46400
2016-09-16T07:46:19.065Z,47584
2016-09-16T07:47:34.046Z,46176
2016-09-16T07:48:19.158Z,38336
2016-09-16T07:49:34.101Z,30176
2016-09-16T07:50:34.138Z,41120
2016-09-16T07:51:19.238Z,28032
2016-09-16T07:52:19.287Z,43648
2016-09-16T07:53:19.320Z,34400
2016-09-16T07:54:19.354Z,37056
2016-09-16T07:55:19.387Z,38912
2016-09-16T07:56:19.424Z,37696
2016-09-16T07:57:19.458Z,42368
2016-09-16T07:58:19.501Z,36832
2016-09-16T07:59:19.532Z,37952
2016-09-16T08:00:19.544Z,39904
2016-09-16T08:01:34.517Z,39232
2016-09-16T08:02:19.714Z,40352
2016-09-16T08:03:19.740Z,40192
2016-09-16T08:06:19.761Z,39200
2016-09-16T08:07:19.796Z,40224
2016-09-16T08:08:19.851Z,41824
2016-09-16T08:09:19.885Z,40992
2016-09-16T08:10:34.839Z,39296
2016-09-16T08:11:19.934Z,38432
2016-09-16T08:12:20.026Z,37504
2016-09-16T08:13:20.017Z,36320
2016-09-16T08:14:20.046Z,36384
2016-09-16T08:15:20.067Z,35680
2016-09-16T08:16:20.108Z,35328
2016-09-16T08:17:20.149Z,34688
2016-09-16T08:18:20.193Z,33760
2016-09-16T08:19:20.211Z,33248
2016-09-16T08:20:20.546Z,33408
2016-09-16T08:21:35.208Z,33536
2016-09-16T08:22:20.310Z,33312
2016-09-16T08:24:20.377Z,30816
2016-09-16T08:25:20.445Z,29792
2016-09-16T08:26:20.442Z,29536
2016-09-16T08:27:20.492Z,27616
2016-09-16T08:28:20.516Z,26336
2016-09-16T08:29:20.552Z,25888
2016-09-16T08:30:20.582Z,25408
2016-09-16T08:31:20.630Z,24736
2016-09-16T08:32:20.657Z,24192
2016-09-16T08:33:20.702Z,23424
2016-09-16T08:34:20.725Z,22400
2016-09-16T08:35:20.760Z,21792
2016-09-16T08:36:35.715Z,21408
2016-09-16T08:37:35.750Z,21248
2016-09-16T08:38:20.878Z,21088
2016-09-16T08:39:20.898Z,20928
2016-09-16T08:41:20.968Z,20512
2016-09-16T08:42:35.932Z,20416
2016-09-16T08:43:21.026Z,20288
2016-09-16T08:44:21.069Z,20224
2016-09-16T08:45:21.107Z,20224
2016-09-16T08:46:21.136Z,20128
2016-09-16T08:47:21.185Z,19936
2016-09-16T08:48:21.204Z,19808
2016-09-16T08:49:21.249Z,19648
2016-09-16T08:50:36.192Z,19520
2016-09-16T08:51:21.316Z,19360
2016-09-16T08:52:21.352Z,19328
2016-09-16T08:53:36.616Z,19136
2016-09-16T08:54:21.399Z,19072
2016-09-16T08:55:21.458Z,18912
2016-09-16T08:56:21.475Z,18848
2016-09-16T08:57:36.444Z,18720
2016-09-16T08:58:21.557Z,18656
2016-09-16T08:59:21.580Z,18592
2016-09-16T09:00:21.919Z,18496
2016-09-16T09:02:21.680Z,18368
2016-09-16T09:03:21.754Z,18304
2016-09-16T09:04:21.788Z,18240
2016-09-16T09:05:21.778Z,18112
2016-09-16T09:06:21.812Z,18016
2016-09-16T09:07:21.846Z,17920
2016-09-16T09:08:21.872Z,17792
2016-09-16T09:09:36.833Z,17696
2016-09-16T09:10:21.948Z,17632
2016-09-16T09:11:21.982Z,17472
2016-09-16T09:12:22.318Z,17196
2016-09-16T09:14:22.084Z,17096
2016-09-16T09:15:22.164Z,16984
2016-09-16T09:16:22.156Z,16828
2016-09-16T09:17:22.182Z,16736
2016-09-16T09:18:22.222Z,16696
2016-09-16T09:19:22.258Z,16612
2016-09-16T09:20:22.289Z,16496
2016-09-16T09:21:22.327Z,16432
2016-09-16T09:22:22.383Z,16336
2016-09-16T09:23:22.389Z,16264
2016-09-16T09:24:37.348Z,16196
2016-09-16T09:26:22.494Z,15968
2016-09-16T09:27:22.530Z,15668
2016-09-16T09:28:22.559Z,15920
2016-09-16T09:29:22.599Z,15836
2016-09-16T09:30:22.631Z,15756
2016-09-16T09:31:22.668Z,15696
2016-09-16T09:32:22.695Z,15656
2016-09-16T09:33:22.728Z,15564
2016-09-16T09:34:22.765Z,15472
2016-09-16T09:36:22.829Z,15320
2016-09-16T09:37:22.875Z,15252
2016-09-16T09:38:37.824Z,15164
2016-09-16T09:39:22.933Z,15128
2016-09-16T09:40:22.972Z,15096
2016-09-16T09:41:23.003Z,14996
2016-09-16T09:44:23.104Z,14772
2016-09-16T09:45:23.144Z,14712
2016-09-16T09:46:23.171Z,14624
2016-09-16T09:47:23.202Z,14600
2016-09-16T09:48:23.235Z,14552
2016-09-16T09:49:23.274Z,14504
2016-09-16T09:50:23.309Z,14476
2016-09-16T09:51:23.359Z,14468
2016-09-16T09:52:23.376Z,14384
2016-09-16T09:53:23.411Z,14364
2016-09-16T09:54:23.442Z,14304
2016-09-16T09:55:23.469Z,14212
2016-09-16T09:57:23.541Z,14136
2016-09-16T09:58:23.584Z,14004
2016-09-16T09:59:23.923Z,13908
2016-09-16T10:00:23.650Z,13824
2016-09-16T10:01:23.676Z,13712
2016-09-16T10:02:23.708Z,13632
2016-09-16T10:03:23.753Z,13560
2016-09-16T10:04:23.778Z,13524
2016-09-16T10:05:23.813Z,13424
2016-09-16T10:06:23.853Z,13364
2016-09-16T10:07:23.882Z,13312
2016-09-16T10:08:23.962Z,13256
2016-09-16T10:09:23.956Z,13168
2016-09-16T10:10:38.961Z,13084
2016-09-16T10:11:24.016Z,12996
2016-09-16T10:12:38.972Z,12872
2016-09-16T10:13:24.084Z,12804
2016-09-16T10:14:24.418Z,12752
2016-09-16T10:16:24.180Z,12584
2016-09-16T10:17:24.212Z,12544
2016-09-16T10:18:39.233Z,12448
2016-09-16T10:19:24.283Z,12392
2016-09-16T10:20:39.249Z,12312
2016-09-16T10:21:24.351Z,12268
2016-09-16T10:22:24.391Z,12204
2016-09-16T10:23:24.428Z,12164
2016-09-16T10:24:39.378Z,12084
2016-09-16T10:25:24.487Z,12036
2016-09-16T10:26:39.444Z,11928
2016-09-16T10:27:24.553Z,11884
2016-09-16T10:28:39.510Z,11828
2016-09-16T10:29:24.623Z,11744
2016-09-16T10:30:24.658Z,11640
2016-09-16T10:31:24.690Z,11536
2016-09-16T10:32:24.723Z,11436
2016-09-16T10:33:24.750Z,11392
2016-09-16T10:34:24.782Z,11260
2016-09-16T10:35:24.820Z,11060
2016-09-16T10:36:24.854Z,10732
2016-09-16T10:37:24.881Z,10428
2016-09-16T10:38:39.843Z,10080
2016-09-16T10:39:24.945Z,9884
2016-09-16T10:40:24.978Z,9640
2016-09-16T10:41:25.020Z,9384
2016-09-16T10:42:25.049Z,9160
2016-09-16T10:43:25.079Z,8944
2016-09-16T10:45:25.155Z,8540
2016-09-16T10:46:25.177Z,8352
2016-09-16T10:47:25.203Z,8184
2016-09-16T10:48:25.239Z,8036
2016-09-16T10:49:25.271Z,7872
2016-09-16T10:50:25.310Z,7728
2016-09-16T10:51:25.342Z,7576
2016-09-16T10:52:25.369Z,7440
2016-09-16T10:53:25.409Z,7292
2016-09-16T10:54:25.437Z,7168
2016-09-16T10:55:25.468Z,7052
2016-09-16T10:56:25.496Z,6948
2016-09-16T10:57:40.459Z,6832
2016-09-16T10:58:25.565Z,6768
2016-09-16T10:59:40.828Z,6668
2016-09-16T11:00:40.546Z,6604
2016-09-16T11:01:25.655Z,6564
2016-09-16T11:02:25.686Z,6504
2016-09-16T11:03:25.716Z,6452
2016-09-16T11:04:26.059Z,6388
2016-09-16T11:05:25.782Z,6348
2016-09-16T11:06:25.815Z,6304
2016-09-16T11:07:25.846Z,6260
2016-09-16T11:08:25.881Z,6212
2016-09-16T11:09:40.839Z,6172
2016-09-16T11:10:25.943Z,6144
2016-09-16T11:11:25.975Z,6116
2016-09-16T11:12:25.998Z,6096
2016-09-16T11:13:40.965Z,6076
2016-09-16T11:14:40.996Z,6048
2016-09-16T11:15:26.104Z,6036
2016-09-16T11:16:41.058Z,6008
2016-09-16T11:17:26.155Z,6004
2016-09-16T11:18:26.199Z,5996
2016-09-16T11:19:26.223Z,5988
2016-09-16T11:20:26.254Z,5988
2016-09-16T11:21:26.351Z,5984
2016-09-16T11:23:26.356Z,5972
2016-09-16T11:24:26.382Z,5972
2016-09-16T11:25:26.415Z,5972
2016-09-16T11:26:26.452Z,5972
2016-09-16T11:27:26.473Z,5976
2016-09-16T11:28:26.501Z,5984
2016-09-16T11:29:26.535Z,6000
2016-09-16T11:30:41.494Z,6020
2016-09-16T11:31:41.532Z,6032
2016-09-16T11:32:26.633Z,6036
2016-09-16T11:33:26.667Z,6044
2016-09-16T11:34:26.694Z,6052
2016-09-16T11:35:26.728Z,6048
2016-09-16T11:36:26.763Z,6040
2016-09-16T11:37:26.792Z,6024
2016-09-16T11:39:26.850Z,6044
2016-09-16T11:40:26.878Z,6036
2016-09-16T11:41:26.910Z,5980
2016-09-16T11:42:26.949Z,5596
2016-09-16T11:44:41.931Z,5616
2016-09-16T11:45:27.036Z,5360
2016-09-16T11:46:27.072Z,4988
2016-09-16T11:47:42.033Z,4680
2016-09-16T11:48:27.141Z,4376
2016-09-16T11:49:27.161Z,4504
2016-09-16T11:50:27.192Z,4796
2016-09-16T11:53:27.293Z,4988
2016-09-16T11:55:27.344Z,5692
2016-09-16T11:57:42.340Z,6500
2016-09-16T11:58:27.445Z,6564
2016-09-16T11:59:27.465Z,6584
2016-09-16T12:00:27.504Z,6624
2016-09-16T12:01:27.534Z,6560
2016-09-16T12:02:27.579Z,6472
2016-09-16T12:03:42.519Z,6148
2016-09-16T12:04:42.550Z,5068
2016-09-16T12:05:42.579Z,5068
2016-09-16T12:07:27.720Z,4952
2016-09-16T12:08:27.752Z,5100
2016-09-16T12:09:27.792Z,5272
2016-09-16T12:10:27.826Z,6068
2016-09-16T12:11:27.865Z,6600
2016-09-16T12:13:27.915Z,7188
2016-09-16T12:14:27.937Z,7188
2016-09-16T12:15:27.978Z,7412
2016-09-16T12:16:28.001Z,7580
2016-09-16T12:17:28.031Z,7700
2016-09-16T12:18:28.113Z,7748
2016-09-16T12:20:28.127Z,6488
2016-09-16T12:22:28.191Z,5400
2016-09-16T12:23:28.214Z,5072
2016-09-16T12:24:28.250Z,4892
2016-09-16T12:26:28.312Z,4780
2016-09-16T12:27:28.344Z,4812
2016-09-16T12:28:28.371Z,4952
2016-09-16T12:29:28.422Z,5096
2016-09-16T12:30:28.443Z,5376
2016-09-16T12:31:43.394Z,5312
2016-09-16T12:32:28.497Z,5372
2016-09-16T12:33:28.529Z,5468
2016-09-16T12:34:43.487Z,5740
2016-09-16T12:35:28.593Z,5712
2016-09-16T12:36:28.625Z,5816
2016-09-16T12:37:28.661Z,5628
2016-09-16T12:38:28.686Z,5644
2016-09-16T12:39:28.723Z,5696
2016-09-16T12:40:28.745Z,5748
2016-09-16T12:41:28.784Z,5840
2016-09-16T12:42:28.806Z,5888
2016-09-16T12:44:28.872Z,6352
2016-09-16T12:46:28.936Z,6304
2016-09-16T12:47:43.892Z,6372
2016-09-16T12:48:29.003Z,6448
2016-09-16T12:49:29.032Z,6836
2016-09-16T12:50:29.060Z,7312
2016-09-16T12:51:44.013Z,7344
2016-09-16T12:53:29.152Z,7516
2016-09-16T12:54:29.186Z,7520
2016-09-16T12:55:29.214Z,7064
2016-09-16T12:56:29.243Z,6904
2016-09-16T12:57:29.278Z,7544
2016-09-16T12:59:29.341Z,7472
2016-09-16T13:00:29.365Z,7736
2016-09-16T13:01:29.406Z,8064
2016-09-16T13:02:29.438Z,7676
2016-09-16T13:03:44.393Z,7048
2016-09-16T13:04:29.491Z,6824
2016-09-16T13:05:29.531Z,6784
2016-09-16T13:06:44.781Z,7164
2016-09-16T13:07:29.596Z,7632
2016-09-16T13:08:29.628Z,7828
2016-09-16T13:09:29.670Z,7768
2016-09-16T13:10:29.692Z,7524
2016-09-16T13:11:29.724Z,7672
2016-09-16T13:12:29.744Z,7700
2016-09-16T13:13:29.782Z,7744
2016-09-16T13:14:29.807Z,7292
2016-09-16T13:15:44.774Z,6860
2016-09-16T13:16:30.925Z,6800
2016-09-16T13:17:29.963Z,6860
2016-09-16T13:18:29.934Z,6588
2016-09-16T13:19:29.975Z,6228
2016-09-16T13:20:44.930Z,5960
2016-09-16T13:21:30.036Z,6004
2016-09-16T13:22:44.991Z,6172
2016-09-16T13:23:45.018Z,6616
2016-09-16T13:24:30.130Z,6872
2016-09-16T13:26:30.194Z,7620
2016-09-16T13:27:30.226Z,7964
2016-09-16T13:28:30.256Z,8504
2016-09-16T13:29:30.283Z,8544
2016-09-16T13:30:30.323Z,8704
2016-09-16T13:31:30.348Z,8740
2016-09-16T13:32:30.376Z,8728
2016-09-16T13:33:30.406Z,8784
2016-09-16T13:34:45.370Z,8668
2016-09-16T13:35:30.475Z,8596
2016-09-16T13:36:30.499Z,8444
2016-09-16T13:37:30.539Z,8032
2016-09-16T13:38:45.491Z,8172
2016-09-16T13:39:30.600Z,7892
2016-09-16T13:40:30.640Z,7656
2016-09-16T13:42:30.684Z,7512
2016-09-16T13:43:30.725Z,7572
2016-09-16T13:44:30.754Z,7560
2016-09-16T13:45:30.803Z,7484
2016-09-16T13:46:30.815Z,7360
2016-09-16T13:47:30.855Z,7244
2016-09-16T13:48:30.884Z,7180
2016-09-16T13:49:30.907Z,7140
2016-09-16T13:50:30.948Z,6916
2016-09-16T13:51:30.976Z,6608
2016-09-16T13:53:31.046Z,5632
2016-09-16T13:54:46.000Z,6052
2016-09-16T13:55:31.112Z,5904
2016-09-16T13:56:31.136Z,5476
2016-09-16T13:57:31.171Z,4864
2016-09-16T13:58:46.135Z,4104
2016-09-16T13:59:31.238Z,3920
2016-09-16T14:00:31.268Z,3828
2016-09-16T14:01:31.287Z,3800
2016-09-16T14:02:31.338Z,3828
2016-09-16T14:03:31.368Z,3896
2016-09-16T14:04:31.392Z,3940
2016-09-16T14:05:31.422Z,4000
2016-09-16T14:06:46.377Z,4896
2016-09-16T14:07:31.484Z,5588
2016-09-16T14:08:31.529Z,5968
2016-09-16T14:09:46.477Z,6440
2016-09-16T14:10:46.501Z,6856
2016-09-16T14:11:31.607Z,7064
2016-09-16T14:12:31.651Z,7316
2016-09-16T14:13:31.672Z,7536
2016-09-16T14:14:31.706Z,7268
2016-09-16T14:15:31.736Z,8144
2016-09-16T14:16:31.767Z,8368
2016-09-16T14:17:31.845Z,8384
2016-09-16T14:18:31.833Z,8276
2016-09-16T14:19:31.862Z,8096
2016-09-16T14:20:31.884Z,7948
2016-09-16T14:21:46.854Z,7792
2016-09-16T14:22:31.956Z,7668
2016-09-16T14:23:31.998Z,7516
2016-09-16T14:24:32.018Z,7388
2016-09-16T14:25:32.048Z,7236
2016-09-16T14:26:47.011Z,7056
2016-09-16T14:27:32.113Z,6936
2016-09-16T14:28:32.152Z,6732
2016-09-16T14:29:32.190Z,6572
2016-09-16T14:30:32.513Z,6392
2016-09-16T14:32:32.273Z,6100
2016-09-16T14:33:32.295Z,6004
2016-09-16T14:34:32.338Z,5940
2016-09-16T14:35:32.361Z,5876
2016-09-16T14:36:32.397Z,5760
2016-09-16T14:37:32.441Z,5576
2016-09-16T14:38:32.466Z,5480
2016-09-16T14:39:32.496Z,5480
2016-09-16T14:40:32.528Z,5392